createdAt,value
2023-01-01T00:00:30.928Z,16.02
2023-01-01T00:02:58.216Z,14.88
2023-01-01T00:05:25.631Z,15.02
2023-01-01T00:07:52.915Z,14.98
2023-01-01T00:10:29.132Z,15.93
2023-01-01T00:13:00.240Z,15.93
2023-01-01T00:15:28.251Z,14.20
2023-01-01T00:17:55.740Z,13.70
2023-01-01T00:20:23.408Z,13.20
2023-01-01T00:22:55.704Z,12.98
2023-01-01T00:25:23.386Z,11.50
2023-01-01T00:27:50.788Z,9.80
2023-01-01T00:30:18.084Z,10.43
2023-01-01T00:32:55.583Z,10.20
2023-01-01T00:35:27.193Z,10.30
2023-01-01T00:37:56.175Z,10.63
2023-01-01T00:40:23.488Z,10.50
2023-01-01T00:42:50.830Z,10.45
2023-01-01T00:45:21.773Z,9.63
2023-01-01T00:47:50.715Z,9.20
2023-01-01T00:50:18.197Z,8.82
2023-01-01T00:52:45.589Z,9.52
2023-01-01T00:55:12.866Z,8.38
2023-01-01T00:57:40.188Z,8.07
2023-01-01T01:00:08.263Z,8.15
2023-01-01T01:02:35.778Z,7.88
2023-01-01T01:05:04.697Z,7.38
2023-01-01T01:07:38.648Z,7.55
2023-01-01T01:10:06.463Z,6.78
2023-01-01T01:12:35.069Z,6.80
2023-01-01T01:15:02.814Z,6.40
2023-01-01T01:17:30.212Z,5.45
2023-01-01T01:19:57.511Z,5.15
2023-01-01T01:22:28.743Z,5.65
2023-01-01T01:24:57.990Z,5.43
2023-01-01T01:27:25.322Z,4.95
2023-01-01T01:29:52.735Z,5.45
2023-01-01T01:32:20.376Z,4.68
2023-01-01T01:34:47.874Z,4.50
2023-01-01T01:37:15.514Z,4.55
2023-01-01T01:39:42.898Z,3.90
2023-01-01T01:42:18.851Z,4.45
2023-01-01T01:44:59.975Z,3.83
2023-01-01T01:47:33.312Z,3.67
2023-01-01T01:50:06.696Z,3.38
2023-01-01T01:52:35.222Z,3.63
2023-01-01T01:55:03.110Z,3.25
2023-01-01T01:57:30.684Z,3.15
2023-01-01T01:59:58.700Z,2.63
2023-01-01T02:02:45.215Z,2.90
2023-01-01T02:05:13.632Z,2.58
2023-01-01T02:07:40.965Z,2.53
2023-01-01T02:10:09.635Z,2.90
2023-01-01T02:12:38.125Z,2.58
2023-01-01T02:15:06.452Z,2.58
2023-01-01T02:17:38.800Z,3.13
2023-01-01T02:20:13.200Z,2.72
2023-01-01T02:23:17.482Z,2.80
2023-01-01T02:26:00.254Z,2.67
2023-01-01T02:28:36.818Z,3.05
2023-01-01T02:31:04.624Z,2.30
2023-01-01T02:33:32.247Z,2.75
2023-01-01T02:36:04.175Z,2.88
2023-01-01T02:38:37.214Z,2.58
2023-01-01T02:41:13.491Z,2.50
2023-01-01T02:43:42.040Z,2.50
2023-01-01T02:46:11.370Z,2.28
2023-01-01T02:48:41.902Z,2.42
2023-01-01T02:51:29.305Z,2.50
2023-01-01T02:54:18.203Z,2.50
2023-01-01T02:56:48.737Z,2.00
2023-01-01T02:59:34.579Z,2.38
2023-01-01T03:02:09.329Z,2.63
2023-01-01T03:05:05.985Z,2.33
2023-01-01T03:07:39.926Z,2.25
2023-01-01T03:10:19.813Z,2.20
2023-01-01T03:13:01.484Z,2.00
2023-01-01T03:15:32.232Z,2.22
2023-01-01T03:18:03.871Z,2.13
2023-01-01T03:20:33.427Z,1.70
2023-01-01T03:23:09.230Z,2.10
2023-01-01T03:25:42.884Z,1.60
2023-01-01T03:28:13.089Z,1.92
2023-01-01T03:30:44.104Z,1.98
2023-01-01T03:33:18.071Z,2.10
2023-01-01T03:36:06.608Z,2.20
2023-01-01T03:38:42.941Z,1.60
2023-01-01T03:41:23.735Z,1.70
2023-01-01T03:44:09.604Z,2.08
2023-01-01T03:46:37.738Z,1.80
2023-01-01T03:49:06.427Z,1.80
2023-01-01T03:51:52.580Z,2.30
2023-01-01T03:54:19.861Z,1.83
2023-01-01T03:56:52.759Z,1.85
2023-01-01T03:59:29.920Z,1.90
2023-01-01T04:02:01.429Z,1.83
2023-01-01T04:04:29.209Z,2.35
2023-01-01T04:06:59.958Z,2.00
2023-01-01T04:09:37.747Z,1.75
2023-01-01T04:12:05.616Z,2.10
2023-01-01T04:14:37.918Z,2.00
2023-01-01T04:17:06.170Z,1.80
2023-01-01T04:19:33.533Z,1.77
2023-01-01T04:22:01.115Z,1.88
2023-01-01T04:24:28.399Z,1.77
2023-01-01T04:26:56.052Z,1.90
2023-01-01T04:29:23.705Z,1.67
2023-01-01T04:31:51.220Z,1.52
2023-01-01T04:34:18.573Z,1.90
2023-01-01T04:36:45.938Z,1.63
2023-01-01T04:39:13.214Z,1.88
2023-01-01T04:41:40.502Z,1.90
2023-01-01T04:44:07.761Z,1.60
2023-01-01T04:46:35.026Z,2.22
2023-01-01T04:49:02.394Z,2.10
2023-01-01T04:51:29.640Z,2.00
2023-01-01T04:53:56.904Z,1.83
2023-01-01T04:56:24.151Z,2.13
2023-01-01T04:58:51.552Z,1.90
2023-01-01T05:01:20.756Z,1.70
2023-01-01T05:03:48.547Z,1.80
2023-01-01T05:06:16.448Z,1.73
2023-01-01T05:08:45.688Z,2.00
2023-01-01T05:11:20.571Z,1.77
2023-01-01T05:13:49.957Z,1.90
2023-01-01T05:16:21.503Z,2.15
2023-01-01T05:18:49.337Z,1.77
2023-01-01T06:25:50.157Z,1.33
2023-01-01T06:28:17.502Z,1.30
2023-01-01T06:30:45.119Z,1.35
2023-01-01T06:33:12.387Z,1.17
2023-01-01T06:35:39.719Z,0.95
2023-01-01T06:38:06.948Z,1.45
2023-01-01T06:40:34.218Z,1.08
2023-01-01T06:43:01.573Z,1.52
2023-01-01T06:45:28.841Z,0.90
2023-01-01T06:47:57.382Z,1.17
2023-01-01T06:50:24.652Z,0.90
2023-01-01T06:52:51.888Z,1.05
2023-01-01T06:55:21.934Z,0.82
2023-01-01T06:57:52.355Z,1.20
2023-01-01T07:00:22.458Z,1.00
2023-01-01T07:02:49.899Z,0.95
2023-01-01T07:05:17.289Z,1.00
2023-01-01T07:07:44.553Z,0.90
2023-01-01T07:10:13.890Z,1.25
2023-01-01T07:12:41.098Z,0.93
2023-01-01T07:15:08.701Z,1.00
2023-01-01T07:17:35.918Z,0.95
2023-01-01T07:20:03.197Z,1.17
2023-01-01T07:22:30.528Z,1.00
2023-01-01T07:24:57.760Z,1.20
2023-01-01T07:27:25.228Z,1.13
2023-01-01T07:29:52.487Z,0.90
2023-01-01T07:32:19.767Z,1.00
2023-01-01T07:34:50.620Z,1.02
2023-01-01T07:37:18.228Z,0.95
2023-01-01T07:39:45.517Z,0.90
2023-01-01T07:42:12.773Z,1.00
2023-01-01T07:44:40.049Z,1.00
2023-01-01T07:47:14.475Z,0.88
2023-01-01T07:49:41.737Z,0.90
2023-01-01T07:52:09.026Z,1.00
2023-01-01T07:54:36.263Z,0.90
2023-01-01T07:57:03.541Z,0.90
2023-01-01T07:59:30.789Z,1.27
2023-01-01T08:01:58.210Z,0.85
2023-01-01T08:04:26.782Z,0.98
2023-01-01T08:06:54.769Z,1.05
2023-01-01T08:09:22.089Z,1.08
2023-01-01T08:11:51.547Z,1.02
2023-01-01T08:16:45.902Z,1.02
2023-01-01T08:19:13.158Z,1.35
2023-01-01T08:21:40.395Z,1.10
2023-01-01T08:24:07.327Z,1.05
2023-01-01T08:26:35.830Z,1.40
2023-01-01T08:29:04.584Z,1.00
2023-01-01T08:31:31.902Z,1.10
2023-01-01T08:33:59.187Z,0.85
2023-01-01T08:36:26.492Z,0.98
2023-01-01T08:38:53.868Z,0.80
2023-01-01T08:41:22.235Z,0.50
2023-01-01T08:43:49.586Z,1.08
2023-01-01T08:46:17.360Z,0.90
2023-01-01T08:48:44.660Z,0.95
2023-01-01T08:51:12.459Z,1.00
2023-01-01T08:53:40.542Z,1.10
2023-01-01T08:56:11.033Z,1.25
2023-01-01T08:58:40.414Z,1.10
2023-01-01T09:01:08.072Z,0.80
2023-01-01T09:03:35.794Z,1.10
2023-01-01T09:06:03.402Z,1.10
2023-01-01T09:08:30.682Z,0.93
2023-01-01T09:11:02.363Z,1.10
2023-01-01T09:13:29.909Z,1.30
2023-01-01T09:15:57.552Z,1.00
2023-01-01T09:18:24.963Z,1.10
2023-01-01T09:20:52.192Z,1.20
2023-01-01T09:23:19.456Z,0.85
2023-01-01T09:25:46.772Z,1.10
2023-01-01T09:28:15.841Z,1.10
2023-01-01T09:30:45.419Z,0.98
2023-01-01T09:33:12.642Z,1.17
2023-01-01T09:35:44.091Z,1.17
2023-01-01T09:38:11.364Z,1.20
2023-01-01T09:41:08.668Z,1.23
2023-01-01T09:43:38.917Z,1.10
2023-01-01T09:46:11.193Z,0.98
2023-01-01T09:48:44.936Z,1.02
2023-01-01T09:51:16.299Z,1.10
2023-01-01T09:53:52.348Z,1.15
2023-01-01T09:56:21.306Z,1.38
2023-01-01T09:58:48.670Z,0.95
2023-01-01T10:01:34.963Z,1.08
2023-01-01T10:04:27.441Z,1.15
2023-01-01T10:06:59.477Z,1.45
2023-01-01T10:09:45.528Z,1.15
2023-01-01T10:12:30.254Z,1.02
2023-01-01T10:15:03.020Z,1.13
2023-01-01T10:17:30.351Z,1.00
2023-01-01T10:19:59.625Z,1.00
2023-01-01T10:25:00.533Z,1.10
2023-01-01T10:27:30.401Z,1.83
2023-01-01T10:30:03.484Z,1.20
2023-01-01T10:32:33.166Z,1.20
2023-01-01T10:35:01.569Z,1.17
2023-01-01T10:37:32.143Z,1.63
2023-01-01T10:39:59.463Z,1.17
2023-01-01T10:42:26.831Z,1.00
2023-01-01T10:44:54.482Z,1.70
2023-01-01T10:47:29.128Z,1.52
2023-01-01T10:49:57.445Z,1.52
2023-01-01T10:52:31.630Z,1.30
2023-01-01T10:55:00.176Z,1.10
2023-01-01T10:57:27.383Z,1.20
2023-01-01T10:59:55.096Z,1.10
2023-01-01T11:02:22.598Z,1.48
2023-01-01T11:04:50.808Z,1.60
2023-01-01T11:07:29.148Z,1.23
2023-01-01T11:10:04.626Z,1.20
2023-01-01T11:13:04.203Z,1.83
2023-01-01T11:15:44.391Z,1.40
2023-01-01T11:18:35.951Z,1.40
2023-01-01T11:21:04.996Z,1.90
2023-01-01T11:23:32.267Z,1.30
2023-01-01T11:26:00.751Z,1.60
2023-01-01T11:28:31.620Z,1.77
2023-01-01T11:31:02.321Z,1.75
2023-01-01T11:33:30.993Z,1.63
2023-01-01T11:35:58.483Z,1.50
2023-01-01T11:38:30.207Z,1.80
2023-01-01T11:41:02.874Z,1.77
2023-01-01T11:43:34.191Z,1.90
2023-01-01T11:46:01.548Z,1.63
2023-01-01T11:48:30.805Z,1.85
2023-01-01T11:50:59.198Z,2.03
2023-01-01T11:53:26.547Z,2.00
2023-01-01T11:55:58.721Z,1.70
2023-01-01T11:58:44.597Z,2.03
2023-01-01T12:01:30.676Z,2.05
2023-01-01T12:04:01.300Z,1.80
2023-01-01T12:06:33.730Z,2.30
2023-01-01T12:09:01.036Z,2.28
2023-01-01T12:11:37.325Z,2.15
2023-01-01T12:14:32.775Z,2.00
2023-01-01T12:17:05.569Z,1.85
2023-01-01T12:19:42.006Z,1.88
2023-01-01T12:22:14.281Z,1.70
2023-01-01T12:24:41.543Z,1.83
2023-01-01T12:27:27.320Z,2.00
2023-01-01T12:30:01.577Z,2.00
2023-01-01T12:32:49.458Z,2.20
2023-01-01T12:35:19.893Z,1.70
2023-01-01T12:37:58.745Z,2.05
2023-01-01T12:40:35.157Z,1.52
2023-01-01T12:43:05.345Z,1.73
2023-01-01T12:45:35.746Z,1.80
2023-01-01T12:48:03.070Z,2.20
2023-01-01T12:50:36.566Z,2.03
2023-01-01T12:53:21.112Z,1.73
2023-01-01T12:56:04.769Z,1.85
2023-01-01T12:58:41.383Z,2.15
2023-01-01T13:01:11.768Z,1.90
2023-01-01T13:03:56.336Z,1.65
2023-01-01T13:06:28.591Z,1.63
2023-01-01T13:09:00.663Z,1.75
2023-01-01T13:11:29.181Z,1.92
2023-01-01T13:13:56.443Z,2.13
2023-01-01T13:16:34.500Z,1.80
2023-01-01T13:19:03.108Z,1.80
2023-01-01T13:21:32.551Z,1.90
2023-01-01T13:26:26.972Z,2.13
2023-01-01T13:29:17.352Z,1.73
2023-01-01T13:31:44.687Z,1.75
2023-01-01T13:34:30.265Z,1.60
2023-01-01T13:37:17.198Z,1.80
2023-01-01T13:40:03.013Z,1.63
2023-01-01T13:42:51.867Z,1.67
2023-01-01T13:46:09.481Z,1.92
2023-01-01T13:48:36.008Z,1.60
2023-01-01T13:54:51.757Z,1.83
2023-01-01T13:57:19.026Z,2.15
2023-01-01T13:59:46.207Z,2.08
2023-01-01T14:02:49.386Z,1.70
2023-01-01T14:05:19.009Z,2.25
2023-01-01T14:07:53.540Z,1.70
2023-01-01T14:10:28.697Z,1.52
2023-01-01T14:12:57.975Z,1.88
2023-01-01T14:17:53.547Z,1.60
2023-01-01T14:20:23.423Z,1.38
2023-01-01T14:22:52.009Z,1.63
2023-01-01T14:25:24.621Z,1.90
2023-01-01T14:27:51.966Z,1.90
2023-01-01T14:30:19.600Z,1.65
2023-01-01T14:32:46.971Z,1.98
2023-01-01T14:35:15.876Z,1.75
2023-01-01T14:37:44.754Z,1.88
2023-01-01T14:40:29.188Z,1.90
2023-01-01T14:43:02.481Z,1.90
2023-01-01T14:45:30.893Z,1.65
2023-01-01T14:47:58.467Z,1.55
2023-01-01T14:50:30.063Z,2.05
2023-01-01T14:52:59.324Z,1.80
2023-01-01T14:57:58.483Z,1.90
2023-01-01T15:00:27.580Z,1.90
2023-01-01T15:02:55.101Z,1.85
2023-01-01T15:05:34.847Z,1.88
2023-01-01T15:08:03.802Z,2.08
2023-01-01T15:10:33.581Z,1.90
2023-01-01T15:13:01.047Z,2.63
2023-01-01T15:15:40.088Z,1.95
2023-01-01T15:18:08.270Z,8.80
2023-01-01T15:20:36.124Z,3.30
2023-01-01T15:23:10.080Z,3.75
2023-01-01T15:25:38.407Z,4.13
2023-01-01T15:28:05.775Z,3.45
2023-01-01T15:30:35.163Z,3.33
2023-01-01T15:33:09.997Z,3.00
2023-01-01T15:35:38.175Z,2.72
2023-01-01T15:38:15.233Z,3.05
2023-01-01T15:40:46.563Z,2.85
2023-01-01T15:43:23.657Z,2.47
2023-01-01T15:45:53.697Z,2.40
2023-01-01T15:48:22.227Z,2.38
2023-01-01T15:50:49.462Z,2.17
2023-01-01T15:53:20.843Z,2.63
2023-01-01T15:55:58.945Z,2.08
2023-01-01T15:58:45.592Z,2.28
2023-01-01T16:01:20.388Z,2.13
2023-01-01T16:03:49.496Z,2.05
2023-01-01T16:06:21.435Z,2.40
2023-01-01T16:08:48.958Z,2.58
2023-01-01T16:11:16.370Z,2.30
2023-01-01T16:13:43.647Z,2.45
2023-01-01T16:16:38.175Z,2.30
2023-01-01T16:19:06.764Z,2.75
2023-01-01T16:21:34.531Z,2.42
2023-01-01T16:24:01.855Z,2.65
2023-01-01T16:26:29.125Z,2.40
2023-01-01T16:28:56.446Z,2.40
2023-01-01T16:31:28.611Z,2.28
2023-01-01T16:33:57.467Z,2.00
2023-01-01T16:36:24.856Z,2.45
2023-01-01T16:38:52.184Z,2.60
2023-01-01T16:41:19.754Z,3.10
2023-01-01T16:43:47.951Z,2.83
2023-01-01T16:46:15.651Z,2.70
2023-01-01T16:48:43.536Z,3.10
2023-01-01T16:51:19.948Z,2.90
2023-01-01T16:53:47.699Z,2.63
2023-01-01T16:56:15.365Z,2.80
2023-01-01T16:58:53.245Z,2.60
2023-01-01T17:01:23.307Z,2.50
2023-01-01T17:03:50.901Z,2.70
2023-01-01T17:06:18.468Z,2.83
2023-01-01T17:08:45.673Z,2.85
2023-01-01T17:11:15.082Z,2.50
2023-01-01T17:13:43.146Z,2.40
2023-01-01T17:16:11.885Z,2.40
2023-01-01T17:19:13.257Z,2.80
2023-01-01T17:21:26.503Z,2.60
2023-01-01T17:23:53.846Z,2.53
2023-01-01T17:26:22.483Z,2.55
2023-01-01T17:28:58.048Z,2.85
2023-01-01T17:31:28.954Z,2.50
2023-01-01T17:33:56.997Z,2.67
2023-01-01T17:36:27.041Z,2.60
2023-01-01T17:38:54.498Z,2.85
2023-01-01T17:41:22.037Z,2.38
2023-01-01T17:43:50.669Z,2.70
2023-01-01T17:46:19.218Z,2.53
2023-01-01T17:48:47.064Z,2.60
2023-01-01T17:51:15.125Z,2.95
2023-01-01T17:53:42.624Z,2.50
2023-01-01T17:56:14.478Z,2.58
2023-01-01T17:58:42.309Z,2.65
2023-01-01T18:01:22.084Z,2.70
2023-01-01T18:03:55.361Z,2.63
2023-01-01T18:06:22.930Z,2.90
2023-01-01T18:08:50.226Z,2.80
2023-01-01T18:11:18.956Z,2.95
2023-01-01T18:13:47.328Z,2.80
2023-01-01T18:16:16.135Z,3.38
2023-01-01T18:18:43.636Z,2.88
2023-01-01T18:21:14.420Z,2.75
2023-01-01T18:23:42.061Z,2.53
2023-01-01T18:26:10.560Z,3.10
2023-01-01T18:28:37.942Z,3.00
2023-01-01T18:31:10.183Z,2.83
2023-01-01T18:33:37.831Z,3.08
2023-01-01T18:36:06.071Z,2.67
2023-01-01T18:38:33.610Z,3.35
2023-01-01T18:41:20.198Z,2.60
2023-01-01T18:43:47.731Z,3.20
2023-01-01T18:46:14.966Z,3.35
2023-01-01T18:48:42.806Z,3.00
2023-01-01T18:51:15.030Z,3.42
2023-01-01T18:53:42.406Z,3.20
2023-01-01T18:56:13.612Z,3.40
2023-01-01T18:58:42.988Z,4.80
2023-01-01T19:01:15.044Z,5.45
2023-01-01T19:03:42.642Z,6.18
2023-01-01T19:06:26.012Z,6.55
2023-01-01T19:09:00.390Z,5.45
2023-01-01T19:11:27.701Z,5.55
2023-01-01T19:14:02.388Z,5.30
2023-01-01T19:16:30.501Z,5.20
2023-01-01T19:19:01.786Z,5.07
2023-01-01T19:21:29.155Z,5.03
2023-01-01T19:23:57.550Z,5.07
2023-01-01T19:26:27.669Z,4.65
2023-01-01T19:29:03.036Z,4.35
2023-01-01T19:31:30.445Z,4.15
2023-01-01T19:33:57.832Z,4.20
2023-01-01T19:36:25.158Z,4.38
2023-01-01T19:38:52.454Z,4.35
2023-01-01T19:41:19.757Z,3.90
2023-01-01T19:43:47.053Z,3.90
2023-01-01T19:46:14.315Z,3.47
2023-01-01T19:48:41.634Z,3.97
2023-01-01T19:51:09.025Z,3.55
2023-01-01T19:53:36.336Z,3.38
2023-01-01T19:56:03.630Z,4.40
2023-01-01T19:58:30.861Z,3.75
2023-01-01T20:00:58.323Z,3.28
2023-01-01T20:03:56.901Z,3.60
2023-01-01T20:06:13.376Z,3.42
2023-01-01T20:08:40.633Z,3.70
2023-01-01T20:11:08.333Z,3.20
2023-01-01T20:13:37.703Z,3.22
2023-01-01T20:16:05.377Z,3.40
2023-01-01T20:18:32.924Z,3.30
2023-01-01T20:21:23.715Z,3.40
2023-01-01T20:23:54.722Z,3.90
2023-01-01T20:26:23.693Z,3.85
2023-01-01T20:29:09.867Z,3.50
2023-01-01T20:31:39.383Z,4.05
2023-01-01T20:34:06.744Z,3.38
2023-01-01T20:36:52.410Z,3.45
2023-01-01T20:39:19.784Z,3.15
2023-01-01T20:41:47.010Z,3.72
2023-01-01T20:44:14.338Z,3.53
2023-01-01T20:46:42.428Z,3.47
2023-01-01T20:49:10.988Z,3.00
2023-01-01T20:51:38.313Z,3.20
2023-01-01T20:54:05.612Z,3.50
2023-01-01T20:56:32.853Z,3.40
2023-01-01T20:59:12.386Z,3.30
2023-01-01T21:01:48.952Z,3.40
2023-01-01T21:04:16.767Z,2.95
2023-01-01T21:06:47.633Z,3.25
2023-01-01T21:09:14.953Z,3.22
2023-01-01T21:11:42.347Z,3.28
2023-01-01T21:14:10.025Z,3.10
2023-01-01T21:16:38.239Z,3.20
2023-01-01T21:19:08.144Z,3.28
2023-01-01T21:21:45.736Z,2.97
2023-01-01T21:24:17.641Z,2.85
2023-01-01T21:26:46.311Z,3.00
2023-01-01T21:29:23.731Z,3.50
2023-01-01T21:31:52.502Z,2.80
2023-01-01T21:34:40.168Z,2.85
2023-01-01T21:37:13.568Z,2.65
2023-01-01T21:39:40.956Z,2.80
2023-01-01T21:42:24.616Z,3.00
2023-01-01T21:44:57.370Z,2.60
2023-01-01T21:47:25.195Z,2.90
2023-01-01T21:49:56.353Z,2.80
2023-01-01T21:52:25.670Z,2.60
2023-01-01T21:57:22.815Z,2.45
2023-01-01T21:59:50.921Z,2.83
2023-01-01T22:02:28.724Z,3.00
2023-01-01T22:04:56.196Z,2.90
2023-01-01T22:10:34.491Z,2.92
2023-01-01T22:13:01.912Z,2.92
2023-01-01T22:15:41.873Z,3.03
2023-01-01T22:18:12.144Z,2.53
2023-01-01T22:20:41.132Z,2.92
2023-01-01T22:23:20.802Z,2.85
2023-01-01T22:25:48.563Z,3.33
2023-01-01T22:28:39.065Z,3.58
2023-01-01T22:31:06.436Z,3.40
2023-01-01T22:33:40.498Z,3.25
2023-01-01T22:36:37.774Z,3.35
2023-01-01T22:39:13.316Z,3.75
2023-01-01T22:41:40.757Z,3.70
2023-01-01T22:44:08.069Z,4.00
2023-01-01T22:46:37.531Z,3.80
2023-01-01T22:49:24.597Z,4.20
2023-01-01T22:51:54.591Z,3.90
2023-01-01T22:54:21.998Z,4.22
2023-01-01T22:56:50.332Z,3.95
2023-01-01T22:59:17.588Z,4.40
2023-01-01T23:01:44.887Z,4.15
2023-01-01T23:04:12.328Z,4.13
2023-01-01T23:06:39.809Z,4.03
2023-01-01T23:09:08.413Z,4.35
2023-01-01T23:11:35.821Z,4.10
2023-01-01T23:14:21.430Z,4.53
2023-01-01T23:16:48.823Z,4.85
2023-01-01T23:19:16.321Z,4.68
2023-01-01T23:21:43.695Z,4.53
2023-01-01T23:24:13.449Z,4.20
2023-01-01T23:26:41.061Z,4.30
2023-01-01T23:29:09.774Z,4.40
2023-01-01T23:31:37.554Z,4.72
2023-01-01T23:34:05.270Z,4.38
2023-01-01T23:36:32.745Z,4.68
2023-01-01T23:39:00.031Z,4.85
2023-01-01T23:41:27.303Z,4.32
2023-01-01T23:43:54.527Z,4.55
2023-01-01T23:46:22.150Z,4.53
2023-01-01T23:48:49.643Z,4.78
2023-01-01T23:51:17.837Z,3.95
2023-01-01T23:53:45.366Z,3.90
2023-01-01T23:56:12.708Z,4.25
2023-01-01T23:58:39.902Z,4.18
